This is the latest recevied weather packets stored in our database for station/object SALIDA. If no packets are shown the sender has not sent any weather packets the latest 10 day(s).
| Time | Temp. | Humidity | Pressure | Rain* | Wind** | Luminosity | Snow |
|---|---|---|---|---|---|---|---|
| 1777836689 | 19.44° C | 21% | 1007.5 hPa | 0 mm | - | - | - |
| 1777835789 | 18.89° C | 22% | 1007.7 hPa | 0 mm | - | - | - |
| 1777834889 | 18.89° C | 22% | 1008.2 hPa | 0 mm | - | - | - |
| 1777833990 | 17.78° C | 23% | 1008.5 hPa | 0 mm | - | - | - |
| 1777833090 | 17.22° C | 24% | 1009 hPa | 0 mm | - | - | - |
| 1777832189 | 17.22° C | 24% | 1009.2 hPa | 0 mm | - | - | - |
| 1777831289 | 17.22° C | 23% | 1009.5 hPa | 0 mm | - | - | - |
| 1777830390 | 17.22° C | 23% | 1009.7 hPa | 0 mm | - | - | - |
| 1777829490 | 17.22° C | 24% | 1010.1 hPa | 0 mm | - | - | - |
| 1777828590 | 16.67° C | 24% | 1010.1 hPa | 0 mm | - | - | - |
| 1777827691 | 16.67° C | 25% | 1010.6 hPa | 0 mm | - | - | - |
| 1777826790 | 16.67° C | 25% | 1010.8 hPa | 0 mm | - | - | - |
| 1777825890 | 16.11° C | 26% | 1011.2 hPa | 0 mm | - | - | - |
| 1777824990 | 15.56° C | 27% | 1011.5 hPa | 0 mm | - | - | - |
| 1777824090 | 14.44° C | 30% | 1011.8 hPa | 0 mm | - | - | - |
| 1777823190 | 13.89° C | 32% | 1012 hPa | 0 mm | - | - | - |
| 1777822290 | 12.78° C | 36% | 1012.2 hPa | 0 mm | - | - | - |
| 1777821390 | 11.67° C | 38% | 1012.6 hPa | 0 mm | - | - | - |
| 1777820490 | 10.56° C | 43% | 1013.1 hPa | 0 mm | - | - | - |
| 1777819590 | 8.89° C | 51% | 1013.3 hPa | 0 mm | - | - | - |
| 1777818690 | 6.67° C | 58% | 1013.6 hPa | 0 mm | - | - | - |
| 1777817790 | 5° C | 62% | 1013.6 hPa | 0 mm | - | - | - |
| 1777816890 | 3.89° C | 66% | 1013.8 hPa | 0 mm | - | - | - |
| 1777815990 | 2.78° C | 68% | 1013.9 hPa | 0 mm | - | - | - |
| 1777815090 | 1.67° C | 68% | 1014.1 hPa | 0 mm | - | - | - |
* Rain latest hour (hover to see other rain measurements)
** Current wind speed in m/s (hover to see current wind gust speed)